Observation data for Friona on 03/10/2018      Previous  Date  Next       Current Mesonet Observations  Soil Data  Daily Summary Page  Observations in Plain Language
KFAS 100600Z 17007KT 05/M11 A2985 RMK A01 T00491105  RH  032%=      5-min Rain = 0
KFAS 100605Z 15007KT 05/M11 A2985 RMK A01 T00501106  RH  031%=      5-min Rain = 0
KFAS 100610Z 15005KT 05/M12 A2985 RMK A01 T00461118  RH  029%=      5-min Rain = 0
KFAS 100615Z 15004KT 05/M12 A2985 RMK A01 T00481118  RH  029%=      5-min Rain = 0
KFAS 100620Z 16004KT 05/M11 A2985 RMK A01 T00531114  RH  029%=      5-min Rain = 0
KFAS 100625Z 17005KT 06/M11 A2985 RMK A01 T00591114  RH  027%=      5-min Rain = 0
KFAS 100630Z 17007KT 06/M11 A2985 RMK A01 T00591110  RH  028%=      5-min Rain = 0
KFAS 100635Z 17007KT 06/M11 A2985 RMK A01 T00551106  RH  030%=      5-min Rain = 0
KFAS 100640Z 17008KT 06/M10 A2985 RMK A01 T00571103  RH  030%=      5-min Rain = 0
KFAS 100645Z 17008KT 06/M10 A2985 RMK A01 T00611102  RH  030%=      5-min Rain = 0
KFAS 100650Z 17009KT 07/M10 A2984 RMK A01 T00671101  RH  029%=      5-min Rain = 0
KFAS 100655Z 17008KT 07/M10 A2984 RMK A01 T00681103  RH  028%=      5-min Rain = 0
KFAS 100700Z 18007KT 06/M10 A2984 RMK A01 T00631103  RH  029%=      5-min Rain = 0
KFAS 100705Z 18008KT 06/M10 A2984 RMK A01 T00551101  RH  031%=      5-min Rain = 0
KFAS 100710Z 19009KT 05/M10 A2984 RMK A01 T00511099  RH  033%=      5-min Rain = 0
KFAS 100715Z 19009KT 05/M10 A2984 RMK A01 T00481098  RH  034%=      5-min Rain = 0
KFAS 100720Z 19009KT 05/M10 A2984 RMK A01 T00471095  RH  035%=      5-min Rain = 0
KFAS 100725Z 19008KT 05/M10 A2984 RMK A01 T00471095  RH  035%=      5-min Rain = 0
KFAS 100730Z 20009KT 05/M09 A2985 RMK A01 T00451094  RH  036%=      5-min Rain = 0
KFAS 100735Z 17008KT 05/M10 A2984 RMK A01 T00481099  RH  034%=      5-min Rain = 0
KFAS 100740Z 18004KT 05/M10 A2985 RMK A01 T00481098  RH  034%=      5-min Rain = 0
KFAS 100745Z 27002KT 04/M10 A2985 RMK A01 T00441098  RH  035%=      5-min Rain = 0
KFAS 100750Z 32003KT 04/M09 A2985 RMK A01 T00361093  RH  038%=      5-min Rain = 0
KFAS 100755Z 15003KT 04/M10 A2985 RMK A01 T00381095  RH  037%=      5-min Rain = 0
KFAS 100800Z 18007KT 06/M10 A2985 RMK A01 T00631098  RH  031%=      5-min Rain = 0
KFAS 100805Z 24007KT 07/M10 A2985 RMK A01 T00701096  RH  029%=      5-min Rain = 0
KFAS 100810Z 20007KT 07/M10 A2985 RMK A01 T00711098  RH  029%=      5-min Rain = 0
KFAS 100815Z 21010KT 07/M09 A2985 RMK A01 T00731093  RH  029%=      5-min Rain = 0
KFAS 100820Z 20011KT 06/M09 A2984 RMK A01 T00641092  RH  032%=      5-min Rain = 0
KFAS 100825Z 19010KT 08/M09 A2984 RMK A01 T00751094  RH  029%=      5-min Rain = 0
KFAS 100830Z 22007KT 07/M09 A2985 RMK A01 T00741091  RH  030%=      5-min Rain = 0
KFAS 100835Z 22006KT 07/M09 A2984 RMK A01 T00681087  RH  032%=      5-min Rain = 0
KFAS 100840Z 22008KT 07/M09 A2984 RMK A01 T00671094  RH  031%=      5-min Rain = 0
KFAS 100845Z 22008KT 06/M10 A2984 RMK A01 T00601095  RH  032%=      5-min Rain = 0
KFAS 100850Z 22010KT 07/M09 A2984 RMK A01 T00681094  RH  030%=      5-min Rain = 0
KFAS 100855Z 22008KT 07/M09 A2984 RMK A01 T00691091  RH  031%=      5-min Rain = 0
KFAS 100900Z 22010KT 07/M10 A2983 RMK A01 T00661095  RH  030%=      5-min Rain = 0
KFAS 100905Z 21010KT 07/M10 A2983 RMK A01 T00681097  RH  030%=      5-min Rain = 0
KFAS 100910Z 21010KT 06/M10 A2983 RMK A01 T00631097  RH  030%=      5-min Rain = 0
KFAS 100915Z 21009KT 06/M10 A2983 RMK A01 T00621098  RH  031%=      5-min Rain = 0
KFAS 100920Z 21010KT 06/M10 A2983 RMK A01 T00611095  RH  032%=      5-min Rain = 0
KFAS 100925Z 21011KT 06/M09 A2983 RMK A01 T00641093  RH  031%=      5-min Rain = 0
KFAS 100930Z 20014KT 07/M09 A2983 RMK A01 T00711089  RH  031%=      5-min Rain = 0
KFAS 100935Z 21013KT 09/M09 A2983 RMK A01 T00861090  RH  028%=      5-min Rain = 0
KFAS 100940Z 22012KT 08/M10 A2984 RMK A01 T00841096  RH  027%=      5-min Rain = 0
KFAS 100945Z 22010KT 08/M10 A2984 RMK A01 T00811097  RH  027%=      5-min Rain = 0
KFAS 100950Z 22011KT 08/M10 A2984 RMK A01 T00791097  RH  027%=      5-min Rain = 0
KFAS 100955Z 22010KT 08/M10 A2983 RMK A01 T00791098  RH  027%=      5-min Rain = 0
KFAS 101000Z 22011KT 08/M10 A2983 RMK A01 T00801097  RH  027%=      5-min Rain = 0
KFAS 101005Z 21011KT 08/M10 A2983 RMK A01 T00761096  RH  028%=      5-min Rain = 0
KFAS 101010Z 22010KT 07/M10 A2983 RMK A01 T00691097  RH  029%=      5-min Rain = 0
KFAS 101015Z 21010KT 06/M10 A2983 RMK A01 T00641098  RH  030%=      5-min Rain = 0
KFAS 101020Z 22009KT 06/M10 A2984 RMK A01 T00621097  RH  031%=      5-min Rain = 0
KFAS 101025Z 23008KT 06/M10 A2984 RMK A01 T00601099  RH  031%=      5-min Rain = 0
KFAS 101030Z 23007KT 06/M10 A2984 RMK A01 T00591099  RH  031%=      5-min Rain = 0
KFAS 101035Z 24008KT 06/M10 A2984 RMK A01 T00571096  RH  032%=      5-min Rain = 0
KFAS 101040Z 25005KT 06/M10 A2984 RMK A01 T00551102  RH  031%=      5-min Rain = 0
KFAS 101045Z 25006KT 06/M11 A2984 RMK A01 T00551106  RH  030%=      5-min Rain = 0
KFAS 101050Z 27006KT 06/M10 A2984 RMK A01 T00581104  RH  030%=      5-min Rain = 0
KFAS 101055Z 26007KT 06/M10 A2984 RMK A01 T00611102  RH  030%=      5-min Rain = 0
KFAS 101100Z 28005KT 06/M11 A2984 RMK A01 T00571106  RH  030%=      5-min Rain = 0
KFAS 101105Z 30006KT 05/M11 A2984 RMK A01 T00481109  RH  031%=      5-min Rain = 0
KFAS 101110Z 30007KT 04/M11 A2985 RMK A01 T00411111  RH  032%=      5-min Rain = 0
KFAS 101115Z 28007KT 04/M11 A2985 RMK A01 T00391108  RH  033%=      5-min Rain = 0
KFAS 101120Z 27007KT 05/M11 A2985 RMK A01 T00451106  RH  032%=      5-min Rain = 0
KFAS 101125Z 27006KT 05/M11 A2985 RMK A01 T00521105  RH  031%=      5-min Rain = 0
KFAS 101130Z 27006KT 05/M11 A2985 RMK A01 T00501106  RH  031%=      5-min Rain = 0
KFAS 101135Z 26006KT 04/M11 A2985 RMK A01 T00441107  RH  032%=      5-min Rain = 0
KFAS 101140Z 26007KT 04/M11 A2985 RMK A01 T00371105  RH  034%=      5-min Rain = 0
KFAS 101145Z 26006KT 03/M10 A2985 RMK A01 T00281104  RH  037%=      5-min Rain = 0
KFAS 101150Z 26008KT 02/M11 A2985 RMK A01 T00241107  RH  037%=      5-min Rain = 0
KFAS 101155Z 25009KT 02/M11 A2985 RMK A01 T00211106  RH  038%=      5-min Rain = 0
KFAS 101200Z 25009KT 02/M11 A2985 RMK A01 T00191105  RH  039%=      5-min Rain = 0
KFAS 101205Z 24008KT 02/M11 A2985 RMK A01 T00181107  RH  039%=      5-min Rain = 0
KFAS 101210Z 24008KT 02/M11 A2984 RMK A01 T00201106  RH  039%=      5-min Rain = 0
KFAS 101215Z 24008KT 02/M09 A2984 RMK A01 T00241094  RH  041%=      5-min Rain = 0
KFAS 101220Z 24008KT 03/M09 A2984 RMK A01 T00311094  RH  039%=      5-min Rain = 0
KFAS 101225Z 24007KT 03/M11 A2984 RMK A01 T00341106  RH  035%=      5-min Rain = 0
KFAS 101230Z 24008KT 03/M11 A2984 RMK A01 T00281108  RH  036%=      5-min Rain = 0
KFAS 101235Z 24007KT 02/M11 A2984 RMK A01 T00191109  RH  038%=      5-min Rain = 0
KFAS 101240Z 23007KT 02/M11 A2984 RMK A01 T00161110  RH  038%=      5-min Rain = 0
KFAS 101245Z 24006KT 02/M11 A2984 RMK A01 T00181112  RH  037%=      5-min Rain = 0
KFAS 101250Z 23005KT 01/M11 A2984 RMK A01 T00101105  RH  042%=      5-min Rain = 0
KFAS 101255Z 20007KT 01/M09 A2985 RMK A01 T00051094  RH  047%=      5-min Rain = 0
KFAS 101300Z 21009KT 00/M10 A2985 RMK A01 T00021096  RH  047%=      5-min Rain = 0
KFAS 101305Z 21008KT 01/M10 A2985 RMK A01 T00061096  RH  046%=      5-min Rain = 0
KFAS 101310Z 23009KT 01/M09 A2985 RMK A01 T00051092  RH  048%=      5-min Rain = 0
KFAS 101315Z 24008KT 01/M09 A2985 RMK A01 T00101091  RH  047%=      5-min Rain = 0
KFAS 101320Z 24009KT 02/M10 A2984 RMK A01 T00171095  RH  043%=      5-min Rain = 0
KFAS 101325Z 24009KT 03/M10 A2984 RMK A01 T00261099  RH  039%=      5-min Rain = 0
KFAS 101330Z 24010KT 03/M10 A2984 RMK A01 T00331100  RH  037%=      5-min Rain = 0
KFAS 101335Z 24010KT 03/M10 A2984 RMK A01 T00321102  RH  037%=      5-min Rain = 0
KFAS 101340Z 24009KT 03/M10 A2985 RMK A01 T00311100  RH  038%=      5-min Rain = 0
KFAS 101345Z 25010KT 03/M10 A2985 RMK A01 T00311103  RH  037%=      5-min Rain = 0
KFAS 101350Z 25010KT 03/M11 A2985 RMK A01 T00311109  RH  035%=      5-min Rain = 0
KFAS 101355Z 25010KT 03/M11 A2985 RMK A01 T00331110  RH  034%=      5-min Rain = 0
KFAS 101400Z 24010KT 04/M11 A2985 RMK A01 T00351105  RH  035%=      5-min Rain = 0
KFAS 101405Z 24008KT 04/M10 A2985 RMK A01 T00391102  RH  035%=      5-min Rain = 0
KFAS 101410Z 25008KT 04/M10 A2985 RMK A01 T00441104  RH  033%=      5-min Rain = 0
KFAS 101415Z 25008KT 05/M11 A2986 RMK A01 T00491106  RH  031%=      5-min Rain = 0
KFAS 101420Z 25008KT 05/M10 A2985 RMK A01 T00531100  RH  032%=      5-min Rain = 0
KFAS 101425Z 25008KT 06/M10 A2985 RMK A01 T00571101  RH  031%=      5-min Rain = 0
KFAS 101430Z 26007KT 06/M10 A2985 RMK A01 T00631104  RH  029%=      5-min Rain = 0
KFAS 101435Z 26008KT 07/M10 A2986 RMK A01 T00691104  RH  028%=      5-min Rain = 0
KFAS 101440Z 26008KT 08/M11 A2986 RMK A01 T00771106  RH  026%=      5-min Rain = 0
KFAS 101445Z 26008KT 09/M11 A2986 RMK A01 T00861105  RH  025%=      5-min Rain = 0
KFAS 101450Z 26008KT 10/M11 A2986 RMK A01 T00951105  RH  023%=      5-min Rain = 0
KFAS 101455Z 27007KT 10/M11 A2986 RMK A01 T01041106  RH  022%=      5-min Rain = 0
KFAS 101500Z 28007KT 11/M11 A2986 RMK A01 T01141108  RH  020%=      5-min Rain = 0
KFAS 101505Z 28009KT 13/M11 A2986 RMK A01 T01251107  RH  019%=      5-min Rain = 0
KFAS 101510Z 28008KT 14/M11 A2986 RMK A01 T01371107  RH  017%=      5-min Rain = 0
KFAS 101515Z 27006KT 15/M10 A2986 RMK A01 T01451104  RH  017%=      5-min Rain = 0
KFAS 101520Z 29011KT 16/M11 A2987 RMK A01 T01611113  RH  014%=      5-min Rain = 0
KFAS 101525Z 29013KT 18/M12 A2987 RMK A01 T01781120  RH  012%=      5-min Rain = 0
KFAS 101530Z 29013KT 18/M12 A2987 RMK A01 T01831124  RH  011%=      5-min Rain = 0
KFAS 101535Z 29013KT 19/M13 A2987 RMK A01 T01871125  RH  011%=      5-min Rain = 0
KFAS 101540Z 29013KT 19/M13 A2987 RMK A01 T01931130  RH  010%=      5-min Rain = 0
KFAS 101545Z 30013KT 20/M14 A2987 RMK A01 T01981135  RH  009%=      5-min Rain = 0
KFAS 101550Z 30013G20KT 20/M14 A2986 RMK A01 T02021139  RH  009%=      5-min Rain = 0
KFAS 101555Z 30014KT 20/M14 A2986 RMK A01 T02031144  RH  008%=      5-min Rain = 0
KFAS 101600Z 30014KT 21/M14 A2986 RMK A01 T02051142  RH  008%=      5-min Rain = 0
KFAS 101605Z 30015KT 21/M14 A2986 RMK A01 T02081141  RH  008%=      5-min Rain = 0
KFAS 101610Z 31014KT 21/M14 A2986 RMK A01 T02091138  RH  008%=      5-min Rain = 0
KFAS 101615Z 30015KT 21/M14 A2986 RMK A01 T02111141  RH  008%=      5-min Rain = 0
KFAS 101620Z 31015KT 22/M14 A2986 RMK A01 T02151139  RH  008%=      5-min Rain = 0
KFAS 101625Z 31017KT 21/M14 A2986 RMK A01 T02131143  RH  008%=      5-min Rain = 0
KFAS 101630Z 30014G20KT 21/M15 A2986 RMK A01 T02141145  RH  008%=      5-min Rain = 0
KFAS 101635Z 30014G19KT 22/M15 A2986 RMK A01 T02161145  RH  008%=      5-min Rain = 0
KFAS 101640Z 29014KT 22/M15 A2986 RMK A01 T02201145  RH  007%=      5-min Rain = 0
KFAS 101645Z 30015KT 22/M15 A2986 RMK A01 T02211151  RH  007%=      5-min Rain = 0
KFAS 101650Z 30015KT 22/M15 A2986 RMK A01 T02221149  RH  007%=      5-min Rain = 0
KFAS 101655Z 30014G20KT 22/M15 A2986 RMK A01 T02241150  RH  007%=      5-min Rain = 0
KFAS 101700Z 31014G20KT 22/M15 A2986 RMK A01 T02241151  RH  007%=      5-min Rain = 0
KFAS 101705Z 30016G24KT 23/M15 A2986 RMK A01 T02261149  RH  007%=      5-min Rain = 0
KFAS 101710Z 30015G20KT 23/M15 A2986 RMK A01 T02261147  RH  007%=      5-min Rain = 0
KFAS 101715Z 30017G24KT 23/M15 A2986 RMK A01 T02281147  RH  007%=      5-min Rain = 0
KFAS 101720Z 31015G24KT 23/M14 A2986 RMK A01 T02291143  RH  007%=      5-min Rain = 0
KFAS 101725Z 31017G22KT 23/M14 A2986 RMK A01 T02291143  RH  007%=      5-min Rain = 0
KFAS 101730Z 31014KT 23/M14 A2986 RMK A01 T02281143  RH  007%=      5-min Rain = 0
KFAS 101735Z 30014G21KT 23/M14 A2986 RMK A01 T02301144  RH  007%=      5-min Rain = 0
KFAS 101740Z 31014G20KT 23/M14 A2986 RMK A01 T02311142  RH  007%=      5-min Rain = 0
KFAS 101745Z 32014KT 23/M14 A2986 RMK A01 T02331142  RH  007%=      5-min Rain = 0
KFAS 101750Z 29016G23KT 23/M14 A2986 RMK A01 T02331143  RH  007%=      5-min Rain = 0
KFAS 101755Z 30015G22KT 23/M14 A2986 RMK A01 T02321139  RH  007%=      5-min Rain = 0
KFAS 101800Z 30015G21KT 23/M14 A2986 RMK A01 T02331137  RH  007%=      5-min Rain = 0
KFAS 101805Z 30016G22KT 24/M13 A2986 RMK A01 T02351134  RH  007%=      5-min Rain = 0
KFAS 101810Z 30016G24KT 23/M14 A2986 RMK A01 T02331139  RH  007%=      5-min Rain = 0
KFAS 101815Z 30017KT 23/M14 A2985 RMK A01 T02331136  RH  007%=      5-min Rain = 0
KFAS 101820Z 31017G24KT 23/M14 A2985 RMK A01 T02341137  RH  007%=      5-min Rain = 0
KFAS 101825Z 30013G18KT 24/M14 A2985 RMK A01 T02351137  RH  007%=      5-min Rain = 0
KFAS 101830Z 32012G18KT 23/M14 A2985 RMK A01 T02341138  RH  007%=      5-min Rain = 0
KFAS 101835Z 31014G19KT 24/M14 A2984 RMK A01 T02361135  RH  007%=      5-min Rain = 0
KFAS 101840Z 30013G21KT 24/M14 A2984 RMK A01 T02351138  RH  007%=      5-min Rain = 0
KFAS 101845Z 30013G20KT 24/M13 A2984 RMK A01 T02371133  RH  007%=      5-min Rain = 0
KFAS 101850Z 32015G21KT 24/M13 A2984 RMK A01 T02391132  RH  007%=      5-min Rain = 0
KFAS 101855Z 32014G19KT 24/M13 A2984 RMK A01 T02371131  RH  008%=      5-min Rain = 0
KFAS 101900Z 32015G20KT 24/M13 A2983 RMK A01 T02381132  RH  007%=      5-min Rain = 0
KFAS 101905Z 32014G20KT 24/M13 A2983 RMK A01 T02381130  RH  008%=      5-min Rain = 0
KFAS 101910Z 34012G17KT 24/M13 A2983 RMK A01 T02361130  RH  008%=      5-min Rain = 0
KFAS 101915Z 31015G21KT 24/M13 A2983 RMK A01 T02381130  RH  008%=      5-min Rain = 0
KFAS 101920Z 28013G19KT 24/M13 A2982 RMK A01 T02371132  RH  007%=      5-min Rain = 0
KFAS 101925Z 29011G17KT 24/M13 A2982 RMK A01 T02431131  RH  007%=      5-min Rain = 0
KFAS 101930Z 29012G18KT 24/M13 A2982 RMK A01 T02411132  RH  007%=      5-min Rain = 0
KFAS 101935Z 30013G19KT 24/M13 A2981 RMK A01 T02421129  RH  007%=      5-min Rain = 0
KFAS 101940Z 30010KT 24/M13 A2981 RMK A01 T02411131  RH  007%=      5-min Rain = 0
KFAS 101945Z 29012G20KT 24/M13 A2981 RMK A01 T02411130  RH  007%=      5-min Rain = 0
KFAS 101950Z 30011G17KT 24/M13 A2981 RMK A01 T02401129  RH  008%=      5-min Rain = 0
KFAS 101955Z 30013G19KT 25/M13 A2981 RMK A01 T02461128  RH  007%=      5-min Rain = 0
KFAS 102000Z 31007G13KT 24/M13 A2981 RMK A01 T02411130  RH  007%=      5-min Rain = 0
KFAS 102005Z 29012G18KT 25/M13 A298 RMK A01 T02451128  RH  007%=      5-min Rain = 0
KFAS 102010Z 27011G16KT 25/M13 A298 RMK A01 T02451133  RH  007%=      5-min Rain = 0
KFAS 102015Z 29014G21KT 25/M13 A298 RMK A01 T02451133  RH  007%=      5-min Rain = 0
KFAS 102020Z 30011G18KT 24/M13 A298 RMK A01 T02421134  RH  007%=      5-min Rain = 0
KFAS 102025Z 27011G18KT 25/M13 A298 RMK A01 T02451134  RH  007%=      5-min Rain = 0
KFAS 102030Z 29009G16KT 24/M14 A2979 RMK A01 T02431137  RH  007%=      5-min Rain = 0
KFAS 102035Z 28015G22KT 25/M14 A2979 RMK A01 T02451140  RH  007%=      5-min Rain = 0
KFAS 102040Z 28012G19KT 25/M15 A2979 RMK A01 T02451146  RH  006%=      5-min Rain = 0
KFAS 102045Z 30009G14KT 24/M14 A2979 RMK A01 T02441138  RH  007%=      5-min Rain = 0
KFAS 102050Z 28006KT 24/M14 A2979 RMK A01 T02411136  RH  007%=      5-min Rain = 0
KFAS 102055Z 26011KT 25/M13 A2979 RMK A01 T02481132  RH  007%=      5-min Rain = 0
KFAS 102100Z 23008G16KT 25/M13 A2979 RMK A01 T02481133  RH  007%=      5-min Rain = 0
KFAS 102105Z 31008G14KT 25/M14 A2979 RMK A01 T02471137  RH  007%=      5-min Rain = 0
KFAS 102110Z 33007KT 24/M14 A2979 RMK A01 T02431136  RH  007%=      5-min Rain = 0
KFAS 102115Z 27009G15KT 24/M14 A2979 RMK A01 T02431135  RH  007%=      5-min Rain = 0
KFAS 102120Z 31010G15KT 25/M13 A2979 RMK A01 T02451132  RH  007%=      5-min Rain = 0
KFAS 102125Z 33005KT 24/M14 A2978 RMK A01 T02441135  RH  007%=      5-min Rain = 0
KFAS 102130Z 29010G18KT 25/M14 A2978 RMK A01 T02461138  RH  007%=      5-min Rain = 0
KFAS 102135Z 29009G14KT 25/M14 A2978 RMK A01 T02451142  RH  007%=      5-min Rain = 0
KFAS 102140Z 30010KT 24/M14 A2979 RMK A01 T02431140  RH  007%=      5-min Rain = 0
KFAS 102145Z 29008G13KT 25/M14 A2978 RMK A01 T02451138  RH  007%=      5-min Rain = 0
KFAS 102150Z 27007KT 24/M14 A2978 RMK A01 T02441139  RH  007%=      5-min Rain = 0
KFAS 102155Z 31007G13KT 25/M14 A2978 RMK A01 T02471136  RH  007%=      5-min Rain = 0
KFAS 102200Z 33006G11KT 25/M14 A2978 RMK A01 T02461138  RH  007%=      5-min Rain = 0
KFAS 102205Z 34003G8KT 25/M14 A2978 RMK A01 T02451139  RH  007%=      5-min Rain = 0
KFAS 102210Z 24003KT 24/M14 A2978 RMK A01 T02431138  RH  007%=      5-min Rain = 0
KFAS 102215Z 27009G14KT 24/M13 A2978 RMK A01 T02421127  RH  008%=      5-min Rain = 0
KFAS 102220Z 26012KT 24/M13 A2978 RMK A01 T02401125  RH  008%=      5-min Rain = 0
KFAS 102225Z 25011G18KT 24/M12 A2979 RMK A01 T02391123  RH  008%=      5-min Rain = 0
KFAS 102230Z 27011KT 24/M13 A2979 RMK A01 T02381127  RH  008%=      5-min Rain = 0
KFAS 102235Z 28007KT 24/M13 A2979 RMK A01 T02371126  RH  008%=      5-min Rain = 0
KFAS 102240Z 25006KT 24/M13 A2979 RMK A01 T02401125  RH  008%=      5-min Rain = 0
KFAS 102245Z 25010KT 24/M12 A2979 RMK A01 T02411123  RH  008%=      5-min Rain = 0
KFAS 102250Z 25008KT 24/M13 A2979 RMK A01 T02391127  RH  008%=      5-min Rain = 0
KFAS 102255Z 27008KT 24/M13 A2979 RMK A01 T02371125  RH  008%=      5-min Rain = 0
KFAS 102300Z 34007KT 23/M14 A2979 RMK A01 T02341136  RH  007%=      5-min Rain = 0
KFAS 102305Z 02006KT 23/M14 A2979 RMK A01 T02311135  RH  008%=      5-min Rain = 0
KFAS 102310Z 01006KT 23/M13 A2979 RMK A01 T02301127  RH  008%=      5-min Rain = 0
KFAS 102315Z 02006KT 23/M13 A2979 RMK A01 T02291127  RH  008%=      5-min Rain = 0
KFAS 102320Z 03006KT 23/M13 A298 RMK A01 T02281132  RH  008%=      5-min Rain = 0
KFAS 102325Z 03008KT 23/M13 A298 RMK A01 T02271129  RH  008%=      5-min Rain = 0
KFAS 102330Z 04008KT 23/M13 A298 RMK A01 T02251128  RH  008%=      5-min Rain = 0
KFAS 102335Z 05008KT 22/M13 A298 RMK A01 T02221133  RH  008%=      5-min Rain = 0
KFAS 102340Z 05008KT 22/M13 A298 RMK A01 T02201131  RH  008%=      5-min Rain = 0
KFAS 102345Z 05009KT 22/M13 A298 RMK A01 T02191133  RH  008%=      5-min Rain = 0
KFAS 102350Z 04008KT 22/M13 A2981 RMK A01 T02171130  RH  009%=      5-min Rain = 0
KFAS 102355Z 03008KT 21/M12 A2981 RMK A01 T02131120  RH  010%=      5-min Rain = 0
KFAS 110000Z 03009KT 21/M12 A2981 RMK A01 T02101120  RH  010%=      5-min Rain = 0
KFAS 110005Z 03009KT 21/M12 A2981 RMK A01 T02091124  RH  010%=      5-min Rain = 0
KFAS 110010Z 03009KT 21/M13 A2981 RMK A01 T02081126  RH  009%=      5-min Rain = 0
KFAS 110015Z 04009KT 21/M13 A2981 RMK A01 T02061126  RH  010%=      5-min Rain = 0
KFAS 110020Z 04008KT 20/M13 A2981 RMK A01 T02021125  RH  010%=      5-min Rain = 0
KFAS 110025Z 04009KT 20/M12 A2982 RMK A01 T01981122  RH  010%=      5-min Rain = 0
KFAS 110030Z 04009KT 20/M12 A2982 RMK A01 T01951121  RH  011%=      5-min Rain = 0
KFAS 110035Z 04008KT 19/M12 A2982 RMK A01 T01921120  RH  011%=      5-min Rain = 0
KFAS 110040Z 05009KT 19/M12 A2982 RMK A01 T01901121  RH  011%=      5-min Rain = 0
KFAS 110045Z 06007KT 19/M12 A2983 RMK A01 T01861115  RH  012%=      5-min Rain = 0
KFAS 110050Z 06007KT 18/M12 A2983 RMK A01 T01821116  RH  012%=      5-min Rain = 0
KFAS 110055Z 06007KT 18/M11 A2983 RMK A01 T01791110  RH  013%=      5-min Rain = 0
KFAS 110100Z 05009KT 18/M12 A2984 RMK A01 T01791117  RH  012%=      5-min Rain = 0
KFAS 110105Z 04008KT 18/M12 A2984 RMK A01 T01771121  RH  012%=      5-min Rain = 0
KFAS 110110Z 05009KT 18/M12 A2984 RMK A01 T01761121  RH  012%=      5-min Rain = 0
KFAS 110115Z 06011KT 18/M12 A2984 RMK A01 T01761115  RH  013%=      5-min Rain = 0
KFAS 110120Z 06011KT 18/M11 A2985 RMK A01 T01761107  RH  013%=      5-min Rain = 0
KFAS 110125Z 06010KT 17/M10 A2985 RMK A01 T01721104  RH  014%=      5-min Rain = 0
KFAS 110130Z 06010KT 17/M10 A2985 RMK A01 T01691101  RH  015%=      5-min Rain = 0
KFAS 110135Z 06012KT 17/M10 A2985 RMK A01 T01691097  RH  015%=      5-min Rain = 0
KFAS 110140Z 06013KT 17/M10 A2985 RMK A01 T01691095  RH  015%=      5-min Rain = 0
KFAS 110145Z 06011KT 17/M09 A2986 RMK A01 T01671092  RH  016%=      5-min Rain = 0
KFAS 110150Z 06007KT 16/M09 A2987 RMK A01 T01641090  RH  017%=      5-min Rain = 0
KFAS 110155Z 03007KT 16/M09 A2987 RMK A01 T01581092  RH  017%=      5-min Rain = 0
KFAS 110200Z 05009KT 15/M10 A2987 RMK A01 T01541100  RH  016%=      5-min Rain = 0
KFAS 110205Z 07009KT 16/M10 A2987 RMK A01 T01551100  RH  016%=      5-min Rain = 0
KFAS 110210Z 06008KT 15/M10 A2988 RMK A01 T01541097  RH  017%=      5-min Rain = 0
KFAS 110215Z 03013G19KT 15/M10 A2989 RMK A01 T01531099  RH  017%=      5-min Rain = 0
KFAS 110220Z 04015G22KT 16/M10 A2989 RMK A01 T01581098  RH  016%=      5-min Rain = 0
KFAS 110225Z 05020G25KT 16/M10 A2989 RMK A01 T01601097  RH  016%=      5-min Rain = 0
KFAS 110230Z 05018KT 16/M10 A299 RMK A01 T01581096  RH  016%=      5-min Rain = 0
KFAS 110235Z 05018KT 16/M09 A299 RMK A01 T01561094  RH  017%=      5-min Rain = 0
KFAS 110240Z 05015KT 15/M09 A2991 RMK A01 T01531094  RH  017%=      5-min Rain = 0
KFAS 110245Z 04015KT 15/M09 A2991 RMK A01 T01491094  RH  018%=      5-min Rain = 0
KFAS 110250Z 04013KT 14/M09 A2992 RMK A01 T01441094  RH  018%=      5-min Rain = 0
KFAS 110255Z 04011G16KT 14/M09 A2992 RMK A01 T01411094  RH  019%=      5-min Rain = 0
KFAS 110300Z 04013KT 14/M09 A2992 RMK A01 T01381092  RH  019%=      5-min Rain = 0
KFAS 110305Z 04014KT 14/M09 A2993 RMK A01 T01361091  RH  020%=      5-min Rain = 0
KFAS 110310Z 04012KT 13/M09 A2993 RMK A01 T01341091  RH  020%=      5-min Rain = 0
KFAS 110315Z 04013KT 13/M09 A2994 RMK A01 T01311090  RH  021%=      5-min Rain = 0
KFAS 110320Z 03012KT 13/M09 A2994 RMK A01 T01291088  RH  021%=      5-min Rain = 0
KFAS 110325Z 03013KT 13/M09 A2995 RMK A01 T01261089  RH  021%=      5-min Rain = 0
KFAS 110330Z 03013KT 13/M09 A2996 RMK A01 T01251087  RH  022%=      5-min Rain = 0
KFAS 110335Z 03013KT 12/M09 A2996 RMK A01 T01241086  RH  022%=      5-min Rain = 0
KFAS 110340Z 03013KT 12/M09 A2996 RMK A01 T01221085  RH  023%=      5-min Rain = 0
KFAS 110345Z 03013KT 12/M09 A2996 RMK A01 T01221086  RH  023%=      5-min Rain = 0
KFAS 110350Z 03014KT 12/M09 A2996 RMK A01 T01221085  RH  023%=      5-min Rain = 0
KFAS 110355Z 03014KT 12/M09 A2997 RMK A01 T01211085  RH  023%=      5-min Rain = 0
KFAS 110400Z 03014KT 12/M09 A2997 RMK A01 T01211085  RH  023%=      5-min Rain = 0
KFAS 110405Z 03015KT 12/M09 A2997 RMK A01 T01231085  RH  023%=      5-min Rain = 0
KFAS 110410Z 03015KT 12/M08 A2998 RMK A01 T01231084  RH  023%=      5-min Rain = 0
KFAS 110415Z 03015KT 12/M08 A2998 RMK A01 T01211084  RH  023%=      5-min Rain = 0
KFAS 110420Z 03015G22KT 12/M08 A2999 RMK A01 T01201083  RH  023%=      5-min Rain = 0
KFAS 110425Z 03020G28KT 12/M08 A2999 RMK A01 T01211081  RH  023%=      5-min Rain = 0
KFAS 110430Z 03029G38KT 12/M07 A30 RMK A01 T01231074  RH  025%=      5-min Rain = 0
KFAS 110435Z 03030G44KT 12/M07 A30 RMK A01 T01221068  RH  026%=      5-min Rain = 0
KFAS 110440Z 03024G30KT 12/M07 A3001 RMK A01 T01191067  RH  027%=      5-min Rain = 0
KFAS 110445Z 03030G37KT 12/M07 A3002 RMK A01 T01171065  RH  027%=      5-min Rain = 0
KFAS 110450Z 03026G34KT 11/M06 A3003 RMK A01 T01141064  RH  028%=      5-min Rain = 0
KFAS 110455Z 03023G30KT 11/M06 A3003 RMK A01 T01111064  RH  029%=      5-min Rain = 0
KFAS 110500Z 03023G29KT 11/M06 A3004 RMK A01 T01081064  RH  029%=      5-min Rain = 0
KFAS 110505Z 03025G33KT 11/M06 A3005 RMK A01 T01071064  RH  029%=      5-min Rain = 0
KFAS 110510Z 03026G35KT 11/M07 A3005 RMK A01 T01061065  RH  029%=      5-min Rain = 0
KFAS 110515Z 03025G31KT 11/M07 A3005 RMK A01 T01051066  RH  030%=      5-min Rain = 0
KFAS 110520Z 03024G31KT 10/M07 A3006 RMK A01 T01041067  RH  030%=      5-min Rain = 0
KFAS 110525Z 03021G28KT 10/M07 A3006 RMK A01 T01011067  RH  030%=      5-min Rain = 0
KFAS 110530Z 03022G28KT 10/M07 A3006 RMK A01 T01011068  RH  030%=      5-min Rain = 0
KFAS 110535Z 03022G31KT 10/M07 A3006 RMK A01 T01001068  RH  030%=      5-min Rain = 0
KFAS 110540Z 03022G28KT 10/M07 A3007 RMK A01 T00991068  RH  030%=      5-min Rain = 0
KFAS 110545Z 03022G30KT 10/M07 A3007 RMK A01 T00981068  RH  030%=      5-min Rain = 0
KFAS 110550Z 02023G29KT 10/M07 A3008 RMK A01 T00981068  RH  031%=      5-min Rain = 0
KFAS 110555Z 02022G28KT 10/M07 A3008 RMK A01 T00971067  RH  031%=      5-min Rain = 0

Page generated in 0.0092 seconds.